Time;durP1;ratioP1;P1;durP2;ratioP2;P2;SDS_P1;SDS_P2;PMS_P1;PMS_P2;Temp;Humidity;BMP_temperature;BMP_pressure;BME280_temperature;BME280_humidity;BME280_pressure;Samples;Min_cycle;Max_cycle;Signal;HPM_P1;HPM_P2
2024/01/22 00:00:26;;;;;;;9.40;7.33;;;;;;;8.17;38.89;99476.13;6735469;29;20238;-82
2024/01/22 00:03:49;;;;;;;11.63;6.80;;;;;;;8.17;38.54;99482.34;6735233;29;20678;-81
2024/01/22 00:07:10;;;;;;;6.10;4.87;;;;;;;8.12;38.91;99490.09;6733009;29;20266;-82
2024/01/22 00:10:32;;;;;;;8.57;6.37;;;;;;;8.11;38.82;99488.41;6734541;29;20598;-81
2024/01/22 00:13:53;;;;;;;7.17;5.40;;;;;;;8.38;38.71;99473.75;6734532;29;20292;-81
2024/01/22 00:17:15;;;;;;;7.90;5.43;;;;;;;8.47;39.16;99475.34;6734212;29;20294;-81
2024/01/22 00:20:38;;;;;;;7.63;6.23;;;;;;;8.45;38.83;99469.34;6733760;29;20263;-80
2024/01/22 00:23:59;;;;;;;11.03;5.77;;;;;;;8.25;39.32;99449.28;6733334;29;20351;-81
2024/01/22 00:27:21;;;;;;;14.57;8.40;;;;;;;8.47;38.55;99452.03;6734887;29;20320;-80
2024/01/22 00:30:42;;;;;;;10.17;6.63;;;;;;;8.53;38.75;99435.19;6733578;29;20275;-80
2024/01/22 00:34:04;;;;;;;6.50;5.67;;;;;;;7.83;40.37;99430.78;6734900;29;20233;-81
2024/01/22 00:37:27;;;;;;;13.43;8.00;;;;;;;8.05;40.11;99432.72;6735539;29;20259;-81
2024/01/22 00:40:48;;;;;;;21.93;10.00;;;;;;;8.21;39.58;99410.34;6731498;29;20306;-82
2024/01/22 00:44:10;;;;;;;7.23;5.40;;;;;;;8.02;40.09;99389.25;6730319;29;20350;-82
2024/01/22 00:47:31;;;;;;;12.30;7.10;;;;;;;7.71;40.79;99378.47;6729848;29;20320;-82
2024/01/22 00:50:53;;;;;;;6.07;5.13;;;;;;;7.76;41.11;99402.09;6730268;29;20711;-82
2024/01/22 00:54:16;;;;;;;6.47;5.63;;;;;;;7.90;40.82;99412.97;6729128;29;20219;-82
2024/01/22 00:57:38;;;;;;;7.07;5.93;;;;;;;7.99;40.60;99411.06;6729285;29;20233;-82
2024/01/22 01:00:59;;;;;;;8.63;6.13;;;;;;;7.56;41.70;99387.41;6733252;29;20233;-81
2024/01/22 01:04:21;;;;;;;5.97;5.37;;;;;;;6.87;43.42;99390.69;6729101;29;20299;-82
2024/01/22 01:07:42;;;;;;;12.20;7.83;;;;;;;7.10;43.39;99378.28;6729697;29;20722;-82
2024/01/22 01:11:05;;;;;;;7.73;5.43;;;;;;;7.40;42.49;99374.03;6728589;29;20246;-81
2024/01/22 01:14:27;;;;;;;8.10;5.80;;;;;;;7.38;42.69;99366.16;6729515;29;20302;-82
2024/01/22 01:17:48;;;;;;;7.67;6.13;;;;;;;7.40;42.36;99360.63;6729200;29;20265;-82
2024/01/22 01:21:10;;;;;;;6.10;5.30;;;;;;;6.38;44.71;99359.50;6729888;29;20379;-81
2024/01/22 01:24:31;;;;;;;7.60;5.53;;;;;;;6.26;45.67;99360.81;6729788;29;20304;-82
2024/01/22 01:27:54;;;;;;;7.23;5.13;;;;;;;6.83;44.59;99373.25;6729679;29;20642;-83
2024/01/22 01:31:15;;;;;;;6.20;5.60;;;;;;;6.86;44.26;99354.19;6735397;29;20699;-83
2024/01/22 01:34:37;;;;;;;6.13;5.53;;;;;;;6.77;44.50;99383.84;6729840;29;20354;-82
2024/01/22 01:37:58;;;;;;;8.53;6.00;;;;;;;6.75;44.72;99378.63;6729431;29;20261;-82
2024/01/22 01:41:20;;;;;;;8.43;6.33;;;;;;;6.60;44.69;99374.09;6729840;29;20395;-82
2024/01/22 01:44:50;;;;;;;7.73;6.13;;;;;;;6.49;45.01;99377.09;6730675;29;20208;-82
2024/01/22 01:48:12;;;;;;;8.13;5.60;;;;;;;5.61;47.34;99371.44;6716551;29;20721;-82
2024/01/22 01:51:34;;;;;;;7.30;5.90;;;;;;;4.99;48.91;99361.91;6726354;29;20310;-82
2024/01/22 01:54:55;;;;;;;6.23;5.60;;;;;;;5.35;48.87;99350.09;6729718;29;20312;-82
2024/01/22 01:58:19;;;;;;;7.80;5.70;;;;;;;5.53;48.07;99361.53;6729257;29;20319;-82
2024/01/22 02:01:42;;;;;;;8.10;6.50;;;;;;;5.28;49.15;99374.94;6729125;29;20246;-81
2024/01/22 02:05:03;;;;;;;7.40;6.37;;;;;;;5.25;48.30;99359.22;6730522;29;20249;-82
2024/01/22 02:08:25;;;;;;;8.00;6.00;;;;;;;4.94;48.74;99341.97;6734812;29;20373;-81
2024/01/22 02:11:46;;;;;;;6.10;5.50;;;;;;;4.77;50.31;99389.09;6734690;29;20255;-82
2024/01/22 02:15:09;;;;;;;7.40;6.13;;;;;;;4.41;51.92;99378.59;6735478;29;20220;-82
2024/01/22 02:18:31;;;;;;;6.13;5.53;;;;;;;5.00;50.70;99368.06;6734850;29;20231;-81
2024/01/22 02:21:53;;;;;;;7.33;5.67;;;;;;;5.29;49.19;99358.75;6735191;29;20725;-82
2024/01/22 02:25:16;;;;;;;6.17;5.47;;;;;;;5.04;49.62;99356.06;6733433;29;20300;-82
2024/01/22 02:28:38;;;;;;;7.33;5.77;;;;;;;4.55;51.43;99357.53;6733767;29;20323;-81
2024/01/22 02:31:59;;;;;;;9.53;6.53;;;;;;;4.99;50.61;99350.34;6733973;29;20243;-81
2024/01/22 02:35:21;;;;;;;6.73;5.83;;;;;;;5.04;49.92;99364.94;6734766;29;20360;-82
2024/01/22 02:38:43;;;;;;;6.90;5.53;;;;;;;5.07;49.58;99372.63;6738710;29;20228;-80
2024/01/22 02:42:06;;;;;;;7.23;6.20;;;;;;;5.05;49.89;99377.31;6734133;29;20711;-82
2024/01/22 02:45:27;;;;;;;6.87;6.17;;;;;;;4.85;50.47;99365.13;6734647;29;20330;-81
2024/01/22 02:48:49;;;;;;;7.43;5.93;;;;;;;4.51;50.88;99385.56;6734173;29;20370;-81
2024/01/22 02:52:10;;;;;;;6.23;5.37;;;;;;;4.40;51.42;99367.09;6734865;29;20227;-82
2024/01/22 02:55:32;;;;;;;6.87;5.13;;;;;;;4.73;50.85;99360.19;6744139;29;20688;-81
2024/01/22 02:58:55;;;;;;;9.90;8.53;;;;;;;4.92;50.35;99343.97;6738326;29;20323;-82
2024/01/22 03:02:17;;;;;;;6.30;5.43;;;;;;;5.27;48.76;99349.22;6735382;29;20228;-82
2024/01/22 03:05:40;;;;;;;6.07;4.97;;;;;;;5.11;49.23;99352.63;6734653;29;20291;-82
2024/01/22 03:09:02;;;;;;;6.10;5.10;;;;;;;5.11;49.36;99346.44;6733744;29;20263;-80
2024/01/22 03:12:23;;;;;;;5.30;4.87;;;;;;;4.79;49.74;99332.88;6734828;29;20363;-82
2024/01/22 03:15:46;;;;;;;5.40;4.80;;;;;;;5.19;48.84;99325.13;6741306;29;20664;-81
2024/01/22 03:19:08;;;;;;;5.70;4.67;;;;;;;4.78;49.58;99332.00;6736936;29;20314;-82
2024/01/22 03:22:29;;;;;;;5.10;4.60;;;;;;;4.99;49.19;99305.78;6736716;29;20232;-81
2024/01/22 03:25:51;;;;;;;5.10;4.47;;;;;;;5.31;48.63;99319.31;6734306;29;20663;-82
2024/01/22 03:29:12;;;;;;;4.10;3.80;;;;;;;5.44;47.98;99326.91;6734001;29;20328;-82
2024/01/22 03:32:35;;;;;;;4.60;4.20;;;;;;;5.20;48.18;99311.56;6734644;29;20210;-81
2024/01/22 03:35:57;;;;;;;5.30;4.80;;;;;;;5.03;49.25;99307.16;6734591;29;20594;-81
2024/01/22 03:39:18;;;;;;;4.40;4.03;;;;;;;5.29;49.04;99301.75;6734147;29;20297;-82
2024/01/22 03:42:40;;;;;;;5.20;4.70;;;;;;;5.45;48.22;99293.81;6734448;29;20321;-82
2024/01/22 03:46:01;;;;;;;4.70;4.30;;;;;;;5.52;48.32;99294.84;6734096;29;20740;-82
2024/01/22 03:49:24;;;;;;;5.27;4.43;;;;;;;5.35;49.07;99295.78;6732210;29;20707;-81
2024/01/22 03:52:46;;;;;;;4.87;4.37;;;;;;;5.37;48.74;99289.25;6733984;29;20796;-81
2024/01/22 03:56:08;;;;;;;8.07;4.53;;;;;;;5.12;49.67;99282.13;6733071;29;20294;-82
2024/01/22 03:59:29;;;;;;;5.07;4.50;;;;;;;5.45;48.81;99273.28;6733430;29;20316;-81
2024/01/22 04:02:51;;;;;;;4.83;4.33;;;;;;;5.51;48.77;99274.44;6733685;29;20302;-82
2024/01/22 04:06:14;;;;;;;4.87;4.20;;;;;;;4.98;50.03;99276.53;6735294;29;20214;-81
2024/01/22 04:09:36;;;;;;;4.90;4.40;;;;;;;5.43;49.45;99259.22;6734665;29;20230;-81
2024/01/22 04:12:57;;;;;;;5.63;5.13;;;;;;;5.29;49.69;99264.34;6734860;29;20232;-82
2024/01/22 04:16:19;;;;;;;4.93;4.33;;;;;;;5.21;50.88;99272.31;6732210;29;20334;-82
2024/01/22 04:19:42;;;;;;;4.20;3.90;;;;;;;5.32;50.37;99280.88;6733120;29;20273;-81
2024/01/22 04:23:05;;;;;;;7.90;4.10;;;;;;;5.46;49.60;99248.22;6732140;29;20225;-81
2024/01/22 04:26:27;;;;;;;5.53;4.33;;;;;;;5.62;49.71;99256.28;6731799;29;20299;-81
2024/01/22 04:29:48;;;;;;;6.10;4.73;;;;;;;5.61;50.02;99249.25;6730604;29;20304;-80
2024/01/22 04:33:10;;;;;;;4.90;4.47;;;;;;;5.73;49.01;99242.56;6739081;29;20211;-81
2024/01/22 04:36:32;;;;;;;4.73;4.27;;;;;;;5.50;49.59;99214.81;6758700;29;20222;-82
2024/01/22 04:39:57;;;;;;;5.93;4.30;;;;;;;5.21;50.51;99221.53;6745616;29;20713;-82
2024/01/22 04:43:21;;;;;;;5.90;4.23;;;;;;;5.04;51.15;99230.47;6732803;29;20371;-81
2024/01/22 04:46:42;;;;;;;5.33;4.73;;;;;;;5.41;50.98;99223.78;6745709;29;20216;-82
2024/01/22 04:50:05;;;;;;;4.90;4.47;;;;;;;5.86;50.01;99226.09;6731158;29;20234;-82
2024/01/22 04:53:26;;;;;;;6.47;4.57;;;;;;;5.95;49.76;99246.53;6732242;29;20218;-81
2024/01/22 04:56:49;;;;;;;5.23;4.37;;;;;;;5.60;50.90;99231.53;6732991;29;20281;-81
2024/01/22 05:00:11;;;;;;;16.40;6.23;;;;;;;5.18;52.13;99222.69;6733811;29;20321;-82
2024/01/22 05:03:33;;;;;;;12.33;5.50;;;;;;;5.56;51.92;99198.09;6732836;29;20242;-81
2024/01/22 05:06:54;;;;;;;5.60;4.80;;;;;;;4.85;52.59;99196.00;6739046;29;20290;-80
2024/01/22 05:10:16;;;;;;;5.23;4.83;;;;;;;5.19;52.36;99219.03;6735065;29;20252;-80
2024/01/22 05:13:48;;;;;;;8.27;4.87;;;;;;;4.97;52.98;99211.59;6732009;29;20314;-82
2024/01/22 05:17:10;;;;;;;6.57;4.80;;;;;;;5.08;53.42;99218.50;6730837;29;20305;-81
2024/01/22 05:20:31;;;;;;;6.80;4.03;;;;;;;5.80;51.64;99200.84;6716415;29;20257;-82
2024/01/22 05:23:53;;;;;;;4.53;4.13;;;;;;;6.20;50.30;99197.34;6730779;29;20574;-82
2024/01/22 05:27:14;;;;;;;5.27;4.30;;;;;;;6.02;50.85;99185.97;6733685;29;20352;-81
2024/01/22 05:30:37;;;;;;;4.93;4.43;;;;;;;5.49;52.52;99196.25;6732400;29;20295;-82
2024/01/22 05:33:59;;;;;;;5.37;4.53;;;;;;;5.61;52.72;99181.56;6731705;29;20717;-82
2024/01/22 05:37:20;;;;;;;5.10;4.50;;;;;;;6.16;51.03;99186.13;6730014;29;20305;-81
2024/01/22 05:40:42;;;;;;;7.80;6.03;;;;;;;5.98;51.75;99185.47;6733850;29;20232;-82
2024/01/22 05:44:03;;;;;;;10.97;8.80;;;;;;;6.25;51.02;99182.44;6735630;29;20279;-82
2024/01/22 05:47:26;;;;;;;12.07;10.17;;;;;;;6.00;51.25;99178.09;6735642;29;20300;-81
2024/01/22 05:50:48;;;;;;;16.63;11.50;;;;;;;6.07;51.56;99186.31;6735661;29;20694;-81
2024/01/22 05:54:09;;;;;;;11.37;10.00;;;;;;;6.12;51.44;99155.34;6736095;29;20318;-80
2024/01/22 05:57:31;;;;;;;10.27;9.10;;;;;;;6.18;51.24;99157.34;6712421;29;20213;-82
2024/01/22 06:00:53;;;;;;;11.67;7.50;;;;;;;6.17;50.83;99130.75;6735725;29;20218;-82
2024/01/22 06:04:16;;;;;;;6.70;5.90;;;;;;;5.87;51.98;99107.34;6736402;29;20249;-82
2024/01/22 06:07:37;;;;;;;6.97;5.97;;;;;;;5.57;53.04;99129.38;6737129;29;20236;-81
2024/01/22 06:10:59;;;;;;;6.90;6.20;;;;;;;5.62;53.57;99111.84;6739938;29;20692;-81
2024/01/22 06:14:20;;;;;;;7.67;6.53;;;;;;;5.98;52.88;99121.25;6735972;29;20242;-81
2024/01/22 06:17:42;;;;;;;7.70;6.90;;;;;;;5.91;52.60;99112.22;6734982;29;20264;-81
2024/01/22 06:21:05;;;;;;;7.30;6.60;;;;;;;6.46;51.95;99123.84;6735374;29;20753;-81
2024/01/22 06:24:27;;;;;;;9.23;7.80;;;;;;;6.30;51.69;99109.66;6735618;29;20738;-81
2024/01/22 06:27:48;;;;;;;5.97;5.03;;;;;;;7.18;50.93;99103.94;6730982;29;20259;-81
2024/01/22 06:31:10;;;;;;;7.80;7.00;;;;;;;6.91;50.70;99080.28;6735113;29;20302;-81
2024/01/22 06:34:31;;;;;;;7.90;6.97;;;;;;;6.87;51.48;99106.59;6735008;29;20219;-82
2024/01/22 06:37:54;;;;;;;5.37;4.30;;;;;;;8.05;48.49;99085.47;6735098;29;20272;-81
2024/01/22 06:41:18;;;;;;;4.20;3.70;;;;;;;8.74;47.48;99101.22;6734415;29;20390;-81
2024/01/22 06:44:40;;;;;;;7.23;5.87;;;;;;;8.83;46.88;99103.63;6732030;29;20211;-82
2024/01/22 06:48:02;;;;;;;9.20;6.20;;;;;;;9.08;45.81;99097.75;6722889;29;20247;-82
2024/01/22 06:51:23;;;;;;;6.90;5.40;;;;;;;8.84;45.98;99058.75;6732071;29;20589;-82
2024/01/22 06:54:46;;;;;;;3.90;3.10;;;;;;;9.39;44.04;99052.56;6734345;29;20215;-81
2024/01/22 06:58:08;;;;;;;4.17;3.20;;;;;;;9.85;43.27;99069.13;6732314;29;20720;-82
2024/01/22 07:01:29;;;;;;;3.07;2.77;;;;;;;10.12;42.71;99068.38;6733904;29;20593;-82
2024/01/22 07:04:51;;;;;;;3.10;2.90;;;;;;;10.16;40.75;99085.81;6725116;29;20288;-81
2024/01/22 07:08:12;;;;;;;3.03;2.80;;;;;;;10.97;39.88;99072.41;6732389;29;20327;-81
2024/01/22 07:11:35;;;;;;;4.43;2.63;;;;;;;11.40;39.11;99087.31;6733851;29;20208;-84
2024/01/22 07:14:57;;;;;;;2.67;2.47;;;;;;;11.58;38.51;99091.13;6733745;29;20298;-81
2024/01/22 07:18:18;;;;;;;2.87;2.57;;;;;;;11.48;37.73;99073.63;6730270;29;20613;-81
2024/01/22 07:21:54;;;;;;;2.30;2.10;;;;;;;11.04;38.69;99059.78;6726377;29;20233;-82
2024/01/22 07:25:16;;;;;;;2.60;2.30;;;;;;;11.37;38.34;99060.72;6703896;29;20745;-81
2024/01/22 07:28:39;;;;;;;2.47;2.27;;;;;;;11.33;38.10;99054.06;6703455;29;20328;-81
2024/01/22 07:32:01;;;;;;;2.77;2.53;;;;;;;11.69;37.98;99065.41;6704862;29;20303;-81
2024/01/22 07:35:24;;;;;;;2.57;2.37;;;;;;;11.92;37.56;99072.06;6704890;29;20205;-81
2024/01/22 07:38:47;;;;;;;4.30;2.57;;;;;;;12.04;37.62;99077.69;6703930;29;20794;-80
2024/01/22 07:42:09;;;;;;;2.63;2.43;;;;;;;12.23;37.27;99066.03;6700938;29;20619;-81
2024/01/22 07:45:32;;;;;;;2.63;2.43;;;;;;;11.87;37.88;99041.31;6706382;29;20205;-81
2024/01/22 07:48:54;;;;;;;2.80;2.60;;;;;;;11.61;38.22;99044.81;6705258;29;20276;-80
2024/01/22 07:52:15;;;;;;;3.13;2.83;;;;;;;11.04;39.20;99039.03;6702964;29;20216;-81
2024/01/22 07:55:37;;;;;;;2.60;2.40;;;;;;;11.61;38.83;99014.25;6705499;29;20299;-85
2024/01/22 07:58:58;;;;;;;2.60;2.40;;;;;;;11.48;39.04;99015.06;6702106;29;20321;-83
2024/01/22 08:02:21;;;;;;;3.43;3.03;;;;;;;11.20;39.84;99010.84;6721421;29;20275;-82
2024/01/22 08:05:43;;;;;;;3.73;2.40;;;;;;;11.27;39.68;98979.31;6733249;29;20208;-81
2024/01/22 08:09:05;;;;;;;3.83;2.73;;;;;;;11.09;39.90;98952.91;6733066;29;20315;-81
2024/01/22 08:12:26;;;;;;;2.47;2.27;;;;;;;11.53;39.32;98965.84;6732968;29;20678;-81
2024/01/22 08:15:48;;;;;;;3.20;2.43;;;;;;;11.66;39.56;98965.88;6737298;29;20344;-81
2024/01/22 08:19:11;;;;;;;2.80;2.60;;;;;;;11.78;39.40;98969.59;6737636;29;20270;-81
2024/01/22 08:22:32;;;;;;;2.80;2.23;;;;;;;11.66;40.00;98973.97;6732952;29;20270;-83
2024/01/22 08:25:54;;;;;;;2.40;2.20;;;;;;;11.87;40.14;98977.28;6733141;29;20701;-81
2024/01/22 08:29:15;;;;;;;2.30;2.20;;;;;;;11.95;40.05;98955.47;6733017;29;20691;-83
2024/01/22 08:32:37;;;;;;;2.93;2.63;;;;;;;12.03;40.09;98960.63;6737943;29;20294;-81
2024/01/22 08:36:00;;;;;;;2.80;2.50;;;;;;;12.09;40.59;98965.19;6736672;29;20220;-81
2024/01/22 08:39:21;;;;;;;2.70;2.50;;;;;;;12.13;40.71;98979.97;6736425;29;20224;-82
2024/01/22 08:42:43;;;;;;;2.60;2.40;;;;;;;12.14;41.17;98938.38;6734307;29;20264;-81
2024/01/22 08:46:04;;;;;;;3.17;2.37;;;;;;;12.83;39.77;98949.34;6728293;29;20272;-82
2024/01/22 08:49:26;;;;;;;2.37;2.20;;;;;;;12.66;40.54;98954.44;6732905;29;20304;-83
2024/01/22 08:52:50;;;;;;;2.63;2.43;;;;;;;12.67;40.82;98963.34;6731619;29;20204;-82
2024/01/22 08:56:13;;;;;;;4.40;2.37;;;;;;;12.82;41.26;98948.53;6728853;29;20235;-82
2024/01/22 08:59:34;;;;;;;3.10;2.57;;;;;;;12.94;40.64;98917.03;6725441;29;20351;-82
2024/01/22 09:02:56;;;;;;;2.43;2.30;;;;;;;13.18;40.77;98932.53;6725098;29;20228;-82
2024/01/22 09:06:17;;;;;;;2.30;2.20;;;;;;;13.09;41.68;98957.38;6730288;29;20254;-81
2024/01/22 09:09:40;;;;;;;2.33;2.13;;;;;;;13.45;41.07;98952.94;6730453;29;20294;-82
2024/01/22 09:13:03;;;;;;;1.90;1.80;;;;;;;12.74;42.76;98913.59;6728295;29;20344;-82
2024/01/22 09:16:24;;;;;;;2.40;2.20;;;;;;;13.20;42.20;98914.19;6732523;29;20240;-81
2024/01/22 09:19:46;;;;;;;2.10;1.80;;;;;;;13.43;42.17;98933.38;6733015;29;20716;-81
2024/01/22 09:23:07;;;;;;;2.30;2.00;;;;;;;13.65;42.09;98925.69;6731933;29;20281;-81
2024/01/22 09:26:30;;;;;;;2.60;2.00;;;;;;;13.97;41.41;98935.38;6733759;29;20220;-82
2024/01/22 09:29:52;;;;;;;2.73;2.07;;;;;;;13.65;42.95;98936.53;6734421;29;20233;-81
2024/01/22 09:33:13;;;;;;;2.00;1.90;;;;;;;13.74;43.04;98932.50;6734015;29;20255;-86
2024/01/22 09:36:35;;;;;;;1.97;1.87;;;;;;;13.59;43.43;98902.19;6725679;29;20292;-80
2024/01/22 09:39:57;;;;;;;2.00;1.90;;;;;;;14.03;43.16;98902.81;6731110;29;20321;-79
2024/01/22 09:43:20;;;;;;;2.07;1.93;;;;;;;14.27;42.95;98918.22;6728066;29;20240;-80
2024/01/22 09:46:42;;;;;;;2.27;1.70;;;;;;;14.57;42.42;98918.28;6728117;29;20587;-79
2024/01/22 09:50:04;;;;;;;1.87;1.77;;;;;;;14.42;43.15;98898.84;6728427;29;20273;-80
2024/01/22 09:53:27;;;;;;;2.73;1.80;;;;;;;14.76;43.01;98904.44;6733866;29;20224;-81
2024/01/22 09:56:52;;;;;;;1.90;1.80;;;;;;;14.63;43.43;98884.81;6745795;29;20216;-81
2024/01/22 10:00:18;;;;;;;2.67;1.80;;;;;;;14.66;43.84;98878.91;6745420;29;20560;-80
2024/01/22 10:03:40;;;;;;;1.90;1.80;;;;;;;14.43;44.35;98870.66;6746259;29;20228;-80
2024/01/22 10:07:02;;;;;;;1.70;1.60;;;;;;;14.65;44.42;98877.28;6739196;29;20297;-81
2024/01/22 10:10:24;;;;;;;1.70;1.60;;;;;;;14.30;45.47;98863.53;6736955;29;20238;-81
2024/01/22 10:13:50;;;;;;;1.77;1.67;;;;;;;14.35;45.91;98885.38;6727949;29;20669;-82
2024/01/22 10:17:17;;;;;;;2.00;1.90;;;;;;;15.02;45.28;98862.53;6730474;29;20240;-83
2024/01/22 10:20:39;;;;;;;1.90;1.80;;;;;;;15.07;45.20;98876.25;6725117;29;20234;-83
2024/01/22 10:24:02;;;;;;;1.50;1.50;;;;;;;15.02;45.94;98873.38;6729199;29;20282;-83
2024/01/22 10:27:23;;;;;;;2.20;1.63;;;;;;;14.90;47.12;98846.22;6729737;29;20644;-86
2024/01/22 10:30:46;;;;;;;2.00;1.87;;;;;;;15.19;47.27;98836.34;6734951;29;20243;-83
2024/01/22 10:34:09;;;;;;;1.70;1.60;;;;;;;15.07;48.01;98822.78;6734629;29;20297;-83
2024/01/22 10:37:30;;;;;;;1.63;1.53;;;;;;;14.95;48.35;98816.50;6733251;29;20284;-85
2024/01/22 10:40:52;;;;;;;4.37;3.07;;;;;;;15.12;49.13;98824.78;6733521;29;20253;-83
2024/01/22 10:44:14;;;;;;;29.57;15.33;;;;;;;15.59;47.96;98799.34;6721141;29;20712;-82
2024/01/22 10:47:36;;;;;;;20.80;10.73;;;;;;;15.53;48.29;98803.00;6739471;29;20246;-80
2024/01/22 10:50:59;;;;;;;12.50;7.73;;;;;;;15.46;48.34;98808.53;6745670;29;20229;-79
2024/01/22 10:54:20;;;;;;;1.80;1.60;;;;;;;15.40;48.50;98790.47;6732691;29;20218;-81
2024/01/22 10:57:43;;;;;;;1.63;1.53;;;;;;;15.50;48.01;98777.13;6728810;29;20257;-80
2024/01/22 11:01:12;;;;;;;2.37;1.73;;;;;;;16.05;46.91;98802.00;6733254;29;20583;-80
2024/01/22 11:04:38;;;;;;;1.20;1.20;;;;;;;15.74;47.98;98791.53;6733148;29;20344;-82
2024/01/22 11:08:03;;;;;;;1.40;1.40;;;;;;;16.11;47.14;98801.03;6734730;29;20734;-81
2024/01/22 11:11:25;;;;;;;1.30;1.30;;;;;;;15.50;48.94;98790.72;6735730;29;20253;-81
2024/01/22 11:14:47;;;;;;;1.10;1.10;;;;;;;15.58;49.02;98776.75;6740176;29;20253;-81
2024/01/22 11:18:10;;;;;;;1.33;1.23;;;;;;;15.65;48.89;98772.03;6733368;29;20294;-81
2024/01/22 11:21:33;;;;;;;1.20;1.20;;;;;;;16.02;48.36;98762.50;6736347;29;20215;-81
2024/01/22 11:25:02;;;;;;;1.40;1.30;;;;;;;15.90;48.43;98741.84;6727267;29;20233;-81
2024/01/22 11:28:24;;;;;;;1.60;1.50;;;;;;;16.02;48.53;98753.50;6721937;29;20235;-83
2024/01/22 11:31:46;;;;;;;1.30;1.30;;;;;;;15.99;48.71;98743.94;6731865;29;20211;-82
2024/01/22 11:35:08;;;;;;;1.17;1.17;;;;;;;16.34;47.71;98743.84;6734809;29;20222;-80
2024/01/22 11:38:49;;;;;;;3.10;1.50;;;;;;;15.96;49.06;98768.06;6733769;29;20239;-81
2024/01/22 11:42:29;;;;;;;2.00;1.80;;;;;;;16.64;47.87;98782.53;6730810;29;20246;-80
2024/01/22 11:45:56;;;;;;;1.80;1.20;;;;;;;15.45;50.40;98765.31;6726476;29;20253;-80
2024/01/22 11:49:17;;;;;;;1.23;1.20;;;;;;;15.90;49.50;98758.16;6720497;29;20239;-81
2024/01/22 11:52:39;;;;;;;1.47;1.40;;;;;;;16.65;47.80;98740.63;6725239;29;20813;-80
2024/01/22 11:56:01;;;;;;;2.17;1.40;;;;;;;16.30;48.72;98776.16;6731396;29;20333;-79
2024/01/22 11:59:24;;;;;;;1.40;1.30;;;;;;;16.21;49.27;98757.72;6741978;29;20241;-83
2024/01/22 12:02:50;;;;;;;2.40;1.30;;;;;;;16.24;49.16;98770.84;6733911;29;20735;-81
2024/01/22 12:06:11;;;;;;;1.63;1.53;;;;;;;16.70;47.84;98755.13;6749271;29;20217;-80
2024/01/22 12:09:34;;;;;;;1.57;1.50;;;;;;;16.55;48.25;98764.94;6741021;29;20723;-81
2024/01/22 12:12:56;;;;;;;1.70;1.60;;;;;;;16.19;49.06;98757.13;6740190;29;20213;-81
2024/01/22 12:16:22;;;;;;;2.07;1.37;;;;;;;15.91;49.88;98757.09;6732762;29;20232;-81
2024/01/22 12:19:45;;;;;;;1.60;1.50;;;;;;;16.03;49.49;98755.16;6727977;29;20258;-85
2024/01/22 12:23:07;;;;;;;1.50;1.40;;;;;;;15.91;49.80;98757.94;6734378;29;20242;-82
2024/01/22 12:26:30;;;;;;;1.70;1.60;;;;;;;16.42;48.42;98744.31;6731456;29;20689;-81
2024/01/22 12:29:59;;;;;;;1.67;1.50;;;;;;;15.90;49.66;98755.44;6739410;29;20233;-81
2024/01/22 12:33:24;;;;;;;1.53;1.43;;;;;;;16.03;49.13;98763.31;6733958;29;20232;-82
2024/01/22 12:36:48;;;;;;;1.27;1.27;;;;;;;16.11;49.27;98761.03;6733379;29;20206;-82
2024/01/22 12:40:14;;;;;;;1.80;1.70;;;;;;;15.93;50.69;98744.91;6733386;29;20238;-81
2024/01/22 12:43:38;;;;;;;1.87;1.40;;;;;;;16.03;50.32;98752.44;6726935;29;20312;-82
2024/01/22 12:46:59;;;;;;;1.17;1.17;;;;;;;16.05;49.98;98747.59;6730773;29;20214;-82
2024/01/22 12:50:22;;;;;;;1.30;1.20;;;;;;;15.90;50.74;98760.88;6730082;29;20247;-82
2024/01/22 12:53:46;;;;;;;1.37;1.33;;;;;;;16.16;50.45;98733.16;6728390;29;20207;-81
2024/01/22 12:57:07;;;;;;;1.70;1.20;;;;;;;16.50;49.06;98724.84;6727287;29;20619;-81
2024/01/22 13:00:29;;;;;;;1.40;1.40;;;;;;;16.09;49.71;98727.00;6731037;29;20812;-82
2024/01/22 13:03:50;;;;;;;1.20;1.10;;;;;;;16.13;50.18;98709.97;6726122;29;20393;-81
2024/01/22 13:07:13;;;;;;;1.10;1.10;;;;;;;16.50;48.92;98722.13;6730318;29;20734;-82
2024/01/22 13:10:36;;;;;;;1.30;1.30;;;;;;;16.22;49.92;98713.13;6740736;29;20257;-83
2024/01/22 13:13:58;;;;;;;1.50;1.40;;;;;;;16.38;49.20;98687.84;6727720;29;20241;-82
2024/01/22 13:17:19;;;;;;;1.43;1.43;;;;;;;16.74;48.39;98695.59;6732276;29;20552;-83
2024/01/22 13:20:41;;;;;;;1.43;1.20;;;;;;;16.20;50.05;98693.47;6734066;29;20228;-82
2024/01/22 13:24:05;;;;;;;1.63;1.53;;;;;;;16.32;49.96;98689.66;6726341;29;20244;-81
2024/01/22 13:27:27;;;;;;;1.57;1.47;;;;;;;16.23;50.31;98691.09;6734732;29;20255;-80
2024/01/22 13:30:48;;;;;;;1.50;1.40;;;;;;;16.43;50.29;98691.53;6730384;29;20293;-81
2024/01/22 13:34:10;;;;;;;1.40;1.30;;;;;;;16.35;50.18;98670.09;6722860;29;20262;-81
2024/01/22 13:37:31;;;;;;;1.20;1.20;;;;;;;16.58;49.92;98688.25;6728655;29;20221;-81
2024/01/22 13:40:54;;;;;;;1.47;1.30;;;;;;;16.69;49.44;98666.38;6726672;29;20301;-81
2024/01/22 13:44:17;;;;;;;1.30;1.30;;;;;;;16.33;50.56;98676.88;6722806;29;20769;-82
2024/01/22 13:47:39;;;;;;;1.30;1.20;;;;;;;16.20;51.05;98669.84;6727381;29;20775;-81
2024/01/22 13:51:01;;;;;;;1.23;1.23;;;;;;;15.99;51.46;98667.78;6727806;29;21139;-81
2024/01/22 13:54:25;;;;;;;1.37;1.27;;;;;;;15.43;53.20;98675.91;6730168;29;20698;-81
2024/01/22 13:57:48;;;;;;;1.10;1.10;;;;;;;15.91;52.06;98657.31;6726128;29;20595;-80
2024/01/22 14:01:09;;;;;;;1.40;1.30;;;;;;;15.51;53.29;98650.25;6730991;29;20712;-80
2024/01/22 14:04:31;;;;;;;1.20;1.17;;;;;;;16.22;51.46;98666.88;6733398;29;20374;-81
2024/01/22 14:07:53;;;;;;;1.20;1.20;;;;;;;16.16;51.43;98676.03;6738786;29;20236;-81
2024/01/22 14:11:16;;;;;;;1.50;1.27;;;;;;;16.23;51.30;98663.09;6731639;29;20344;-83
2024/01/22 14:14:39;;;;;;;1.47;1.37;;;;;;;15.86;51.95;98661.84;6732959;29;20586;-81
2024/01/22 14:18:01;;;;;;;1.27;1.27;;;;;;;15.75;52.24;98658.06;6743095;29;20740;-83
2024/01/22 14:21:25;;;;;;;1.40;1.30;;;;;;;15.54;52.73;98642.44;6737432;29;20234;-85
2024/01/22 14:24:48;;;;;;;1.63;1.40;;;;;;;15.73;52.37;98649.34;6739364;29;20240;-82
2024/01/22 14:28:09;;;;;;;1.40;1.30;;;;;;;15.43;52.80;98656.03;6742826;29;20523;-81
2024/01/22 14:31:32;;;;;;;1.03;1.03;;;;;;;15.82;51.88;98649.78;6746110;29;20214;-82
2024/01/22 14:34:53;;;;;;;1.23;1.13;;;;;;;15.78;51.59;98663.03;6745879;29;20229;-81
2024/01/22 14:38:15;;;;;;;1.47;1.30;;;;;;;15.67;52.16;98663.06;6730675;29;20238;-81
2024/01/22 14:41:37;;;;;;;1.17;1.17;;;;;;;15.28;52.83;98666.56;6729475;29;20248;-83
2024/01/22 14:44:58;;;;;;;1.00;1.00;;;;;;;15.29;53.05;98668.22;6733222;29;20269;-83
2024/01/22 14:48:21;;;;;;;1.10;1.10;;;;;;;15.48;52.62;98664.31;6733276;29;20318;-83
2024/01/22 14:51:44;;;;;;;1.30;1.20;;;;;;;15.47;52.68;98649.91;6733700;29;20295;-83
2024/01/22 14:55:07;;;;;;;1.37;1.30;;;;;;;15.80;51.61;98652.75;6733935;29;20235;-83
2024/01/22 14:58:28;;;;;;;1.20;1.20;;;;;;;16.04;50.60;98658.94;6734115;29;20347;-83
2024/01/22 15:01:50;;;;;;;1.43;1.37;;;;;;;15.83;51.05;98649.56;6734429;29;20270;-83
2024/01/22 15:05:13;;;;;;;1.17;1.17;;;;;;;15.77;51.40;98657.84;6732606;29;20320;-83
2024/01/22 15:08:35;;;;;;;1.20;1.20;;;;;;;15.69;51.67;98663.66;6734799;29;20237;-83
2024/01/22 15:11:57;;;;;;;1.20;1.20;;;;;;;15.48;52.59;98681.44;6734339;29;20209;-83
2024/01/22 15:15:18;;;;;;;1.10;1.10;;;;;;;14.92;53.99;98675.78;6735820;29;20309;-83
2024/01/22 15:18:41;;;;;;;1.23;1.23;;;;;;;15.32;53.27;98690.31;6735094;29;20371;-82
2024/01/22 15:22:06;;;;;;;1.40;1.30;;;;;;;15.60;52.72;98695.00;6735630;29;20603;-83
2024/01/22 15:25:27;;;;;;;1.40;1.40;;;;;;;15.61;53.73;98702.91;6735221;29;20235;-83
2024/01/22 15:28:49;;;;;;;1.40;1.30;;;;;;;15.33;54.73;98686.53;6735590;29;20320;-83
2024/01/22 15:32:11;;;;;;;2.80;1.30;;;;;;;14.96;56.20;98689.69;6737437;29;20225;-82
2024/01/22 15:35:33;;;;;;;1.23;1.23;;;;;;;15.36;55.34;98696.09;6741725;29;20205;-82
2024/01/22 15:38:56;;;;;;;1.90;1.70;;;;;;;15.13;55.76;98693.38;6733772;29;20234;-83
2024/01/22 15:42:18;;;;;;;1.40;1.33;;;;;;;15.52;54.90;98700.81;6735073;29;20221;-81
2024/01/22 15:45:40;;;;;;;1.90;1.80;;;;;;;15.48;55.02;98686.88;6738547;29;20240;-81
2024/01/22 15:49:02;;;;;;;1.33;1.33;;;;;;;15.05;55.79;98691.00;6725131;29;20229;-81
2024/01/22 15:52:23;;;;;;;1.20;1.20;;;;;;;15.49;55.04;98683.09;6737317;29;20607;-82
2024/01/22 15:55:46;;;;;;;1.27;1.27;;;;;;;15.16;55.70;98698.34;6732481;29;20595;-79